createdAt,value
2022-08-25T00:03:08.314Z,1009.351
2022-08-25T00:23:08.303Z,1009.321
2022-08-25T00:43:07.521Z,1009.382
2022-08-25T01:03:08.518Z,1009.431
2022-08-25T01:23:07.414Z,1009.43
2022-08-25T01:43:07.248Z,1009.379
2022-08-25T02:23:07.506Z,1009.372
2022-08-25T02:43:07.432Z,1009.349
2022-08-25T03:03:08.105Z,1009.257
2022-08-25T03:23:07.781Z,1009.211
2022-08-25T03:43:07.705Z,1009.113
2022-08-25T04:03:08.441Z,1008.935
2022-08-25T04:23:07.372Z,1008.919
2022-08-25T04:43:07.667Z,1008.8
2022-08-25T05:03:08.321Z,1008.717
2022-08-25T05:23:08.665Z,1008.745
2022-08-25T05:43:07.637Z,1008.852
2022-08-25T06:03:08.457Z,1008.867
2022-08-25T06:23:07.413Z,1008.598
2022-08-25T06:43:07.313Z,1008.617
2022-08-25T07:03:08.553Z,1008.653
2022-08-25T07:23:07.577Z,1008.613
2022-08-25T07:43:08.153Z,1008.751
2022-08-25T08:03:50.054Z,1008.818
2022-08-25T08:23:08.596Z,1008.786
2022-08-25T08:43:19.323Z,1008.537
2022-08-25T09:03:08.498Z,1008.49
2022-08-25T09:23:07.674Z,1008.278
2022-08-25T09:43:07.629Z,1008.042
2022-08-25T10:03:09.381Z,1007.763
2022-08-25T10:23:08.500Z,1007.406
2022-08-25T10:43:08.775Z,1007.102
2022-08-25T11:03:09.234Z,1006.771
2022-08-25T11:23:08.376Z,1006.601
2022-08-25T11:43:13.296Z,1006.504
2022-08-25T12:03:09.468Z,1006.489
2022-08-25T12:23:07.474Z,1006.459
2022-08-25T12:43:08.102Z,1006.311
2022-08-25T13:03:10.855Z,1006.153
2022-08-25T13:23:08.400Z,1005.831
2022-08-25T13:43:07.450Z,1005.73
2022-08-25T14:03:14.026Z,1005.508
2022-08-25T14:23:10.859Z,1005.166
2022-08-25T14:43:10.848Z,1005.153
2022-08-25T15:03:09.191Z,1004.994
2022-08-25T15:23:08.080Z,1004.759
2022-08-25T15:43:08.119Z,1004.603
2022-08-25T16:03:09.543Z,1004.52
2022-08-25T16:23:08.870Z,1004.436
2022-08-25T16:43:08.658Z,1004.387
2022-08-25T17:03:08.560Z,1004.312
2022-08-25T17:23:13.545Z,1004.301
2022-08-25T17:43:10.336Z,1004.23
2022-08-25T18:03:10.247Z,1004.331
2022-08-25T18:23:10.571Z,1004.354
2022-08-25T18:43:08.104Z,1004.446
2022-08-25T19:03:09.550Z,1004.524
2022-08-25T19:23:08.634Z,1004.543
2022-08-25T19:43:07.799Z,1004.547
2022-08-25T20:03:10.054Z,1004.639
2022-08-25T20:23:08.504Z,1004.665
2022-08-25T20:43:12.445Z,1004.738
2022-08-25T21:03:09.745Z,1004.619
2022-08-25T21:23:09.227Z,1004.61
2022-08-25T21:43:08.177Z,1004.65
2022-08-25T22:03:09.178Z,1004.653
2022-08-25T22:23:09.401Z,1004.569
2022-08-25T22:43:10.826Z,1004.473
2022-08-25T23:03:09.367Z,1004.473
2022-08-25T23:23:08.767Z,1004.432
2022-08-25T23:43:08.530Z,1004.267
